sensor_id;sensor_type;location;lat;lon;timestamp;pressure;altitude;pressure_sealevel;temperature;humidity
9905;BME280;4991;43.566;27.820;2022-09-09T00:04:34;99066.31;;;18.13;100.00
9905;BME280;4991;43.566;27.820;2022-09-09T00:10:17;99072.06;;;18.08;100.00
9905;BME280;4991;43.566;27.820;2022-09-09T00:13:22;99075.75;;;17.99;100.00
9905;BME280;4991;43.566;27.820;2022-09-09T00:16:24;99077.44;;;18.04;100.00
9905;BME280;4991;43.566;27.820;2022-09-09T00:21:25;99065.88;;;17.98;100.00
9905;BME280;4991;43.566;27.820;2022-09-09T00:23:54;99060.84;;;18.00;100.00
9905;BME280;4991;43.566;27.820;2022-09-09T00:26:38;99061.50;;;17.97;100.00
9905;BME280;4991;43.566;27.820;2022-09-09T00:31:35;99055.22;;;17.85;100.00
9905;BME280;4991;43.566;27.820;2022-09-09T00:34:21;99057.38;;;17.79;100.00
9905;BME280;4991;43.566;27.820;2022-09-09T00:36:49;99062.34;;;17.74;100.00
9905;BME280;4991;43.566;27.820;2022-09-09T00:39:32;99057.59;;;17.74;100.00
9905;BME280;4991;43.566;27.820;2022-09-09T00:42:14;99059.00;;;17.68;100.00
9905;BME280;4991;43.566;27.820;2022-09-09T00:47:50;99058.88;;;17.65;100.00
9905;BME280;4991;43.566;27.820;2022-09-09T00:58:30;99054.88;;;17.62;100.00
9905;BME280;4991;43.566;27.820;2022-09-09T01:01:11;99060.38;;;17.62;100.00
9905;BME280;4991;43.566;27.820;2022-09-09T01:03:53;99056.47;;;17.63;100.00
9905;BME280;4991;43.566;27.820;2022-09-09T01:11:22;99056.84;;;17.41;100.00
9905;BME280;4991;43.566;27.820;2022-09-09T01:14:10;99056.31;;;17.48;100.00
9905;BME280;4991;43.566;27.820;2022-09-09T01:16:38;99061.84;;;17.48;100.00
9905;BME280;4991;43.566;27.820;2022-09-09T01:19:10;99063.75;;;17.35;100.00
9905;BME280;4991;43.566;27.820;2022-09-09T01:24:46;99062.81;;;17.31;100.00
9905;BME280;4991;43.566;27.820;2022-09-09T01:27:14;99052.34;;;17.25;100.00
9905;BME280;4991;43.566;27.820;2022-09-09T01:29:41;99058.75;;;17.17;100.00
9905;BME280;4991;43.566;27.820;2022-09-09T01:35:04;99043.16;;;17.09;100.00
9905;BME280;4991;43.566;27.820;2022-09-09T01:37:31;99044.31;;;17.08;100.00
9905;BME280;4991;43.566;27.820;2022-09-09T01:39:57;99043.63;;;17.11;100.00
9905;BME280;4991;43.566;27.820;2022-09-09T01:42:23;99035.84;;;17.13;100.00
9905;BME280;4991;43.566;27.820;2022-09-09T01:44:48;99036.50;;;17.10;100.00
9905;BME280;4991;43.566;27.820;2022-09-09T01:47:15;99046.59;;;17.06;100.00
9905;BME280;4991;43.566;27.820;2022-09-09T01:49:40;99038.91;;;16.99;100.00
9905;BME280;4991;43.566;27.820;2022-09-09T01:52:06;99043.94;;;16.97;100.00
9905;BME280;4991;43.566;27.820;2022-09-09T01:54:33;99042.78;;;16.98;100.00
9905;BME280;4991;43.566;27.820;2022-09-09T02:04:52;99060.13;;;16.78;100.00
9905;BME280;4991;43.566;27.820;2022-09-09T02:10:10;99058.59;;;16.68;100.00
9905;BME280;4991;43.566;27.820;2022-09-09T02:12:43;99059.97;;;16.62;100.00
9905;BME280;4991;43.566;27.820;2022-09-09T02:15:42;99068.00;;;16.67;100.00
9905;BME280;4991;43.566;27.820;2022-09-09T02:18:10;99064.56;;;16.70;100.00
9905;BME280;4991;43.566;27.820;2022-09-09T02:20:39;99059.41;;;16.69;100.00
9905;BME280;4991;43.566;27.820;2022-09-09T02:23:07;99067.06;;;16.63;100.00
9905;BME280;4991;43.566;27.820;2022-09-09T02:25:35;99062.72;;;16.62;100.00
9905;BME280;4991;43.566;27.820;2022-09-09T02:28:05;99062.38;;;16.64;100.00
9905;BME280;4991;43.566;27.820;2022-09-09T02:30:33;99050.75;;;16.58;100.00
9905;BME280;4991;43.566;27.820;2022-09-09T02:33:02;99061.75;;;16.58;100.00
9905;BME280;4991;43.566;27.820;2022-09-09T02:35:30;99057.75;;;16.56;100.00
9905;BME280;4991;43.566;27.820;2022-09-09T02:38:01;99060.63;;;16.59;100.00
9905;BME280;4991;43.566;27.820;2022-09-09T02:40:29;99056.41;;;16.62;100.00
9905;BME280;4991;43.566;27.820;2022-09-09T02:42:55;99055.59;;;16.61;100.00
9905;BME280;4991;43.566;27.820;2022-09-09T02:45:24;99053.84;;;16.57;100.00
9905;BME280;4991;43.566;27.820;2022-09-09T02:50:43;99073.03;;;16.65;100.00
9905;BME280;4991;43.566;27.820;2022-09-09T02:53:17;99068.34;;;16.66;100.00
9905;BME280;4991;43.566;27.820;2022-09-09T02:55:49;99055.06;;;16.68;100.00
9905;BME280;4991;43.566;27.820;2022-09-09T02:58:20;99053.66;;;16.62;100.00
9905;BME280;4991;43.566;27.820;2022-09-09T03:00:49;99059.63;;;16.64;100.00
9905;BME280;4991;43.566;27.820;2022-09-09T03:03:16;99056.53;;;16.65;100.00
9905;BME280;4991;43.566;27.820;2022-09-09T03:05:43;99062.03;;;16.65;100.00
9905;BME280;4991;43.566;27.820;2022-09-09T03:08:10;99056.53;;;16.65;100.00
9905;BME280;4991;43.566;27.820;2022-09-09T03:10:36;99057.34;;;16.66;100.00
9905;BME280;4991;43.566;27.820;2022-09-09T03:13:03;99062.84;;;16.66;100.00
9905;BME280;4991;43.566;27.820;2022-09-09T03:15:31;99065.47;;;16.62;100.00
9905;BME280;4991;43.566;27.820;2022-09-09T03:17:58;99065.94;;;16.64;100.00
9905;BME280;4991;43.566;27.820;2022-09-09T03:20:29;99058.94;;;16.67;100.00
9905;BME280;4991;43.566;27.820;2022-09-09T03:22:55;99057.56;;;16.61;100.00
9905;BME280;4991;43.566;27.820;2022-09-09T03:25:22;99058.34;;;16.61;100.00
9905;BME280;4991;43.566;27.820;2022-09-09T03:27:53;99058.47;;;16.65;100.00
9905;BME280;4991;43.566;27.820;2022-09-09T03:30:27;99059.28;;;16.65;100.00
9905;BME280;4991;43.566;27.820;2022-09-09T03:32:53;99059.06;;;16.70;100.00
9905;BME280;4991;43.566;27.820;2022-09-09T03:35:18;99055.06;;;16.68;100.00
9905;BME280;4991;43.566;27.820;2022-09-09T03:37:44;99056.53;;;16.65;100.00
9905;BME280;4991;43.566;27.820;2022-09-09T03:40:10;99051.03;;;16.65;100.00
9905;BME280;4991;43.566;27.820;2022-09-09T03:42:37;99056.19;;;16.67;100.00
9905;BME280;4991;43.566;27.820;2022-09-09T03:45:04;99055.59;;;16.61;100.00
9905;BME280;4991;43.566;27.820;2022-09-09T03:47:30;99054.81;;;16.61;100.00
9905;BME280;4991;43.566;27.820;2022-09-09T03:49:56;99055.06;;;16.68;100.00
9905;BME280;4991;43.566;27.820;2022-09-09T03:52:22;99064.09;;;16.68;100.00
9905;BME280;4991;43.566;27.820;2022-09-09T03:54:50;99057.13;;;16.71;100.00
9905;BME280;4991;43.566;27.820;2022-09-09T03:57:16;99066.78;;;16.77;100.00
9905;BME280;4991;43.566;27.820;2022-09-09T03:59:43;99064.84;;;16.77;100.00
9905;BME280;4991;43.566;27.820;2022-09-09T04:02:09;99064.63;;;16.83;100.00
9905;BME280;4991;43.566;27.820;2022-09-09T04:04:35;99061.88;;;16.83;100.00
9905;BME280;4991;43.566;27.820;2022-09-09T04:07:01;99057.97;;;16.84;100.00
9905;BME280;4991;43.566;27.820;2022-09-09T04:09:27;99067.31;;;16.91;100.00
9905;BME280;4991;43.566;27.820;2022-09-09T04:11:53;99059.84;;;16.92;100.00
9905;BME280;4991;43.566;27.820;2022-09-09T04:14:19;99069.38;;;16.94;100.00
9905;BME280;4991;43.566;27.820;2022-09-09T04:16:45;99052.88;;;16.94;100.00
9905;BME280;4991;43.566;27.820;2022-09-09T04:19:11;99063.06;;;16.94;100.00
9905;BME280;4991;43.566;27.820;2022-09-09T04:21:40;99063.19;;;16.97;100.00
9905;BME280;4991;43.566;27.820;2022-09-09T04:24:08;99057.81;;;17.01;100.00
9905;BME280;4991;43.566;27.820;2022-09-09T04:26:36;99055.53;;;17.03;100.00
9905;BME280;4991;43.566;27.820;2022-09-09T04:29:03;99058.84;;;17.08;100.00
9905;BME280;4991;43.566;27.820;2022-09-09T04:31:29;99059.59;;;17.17;100.00
9905;BME280;4991;43.566;27.820;2022-09-09T04:33:55;99065.22;;;17.21;100.00
9905;BME280;4991;43.566;27.820;2022-09-09T04:36:21;99062.94;;;17.23;100.00
9905;BME280;4991;43.566;27.820;2022-09-09T04:38:47;99063.63;;;17.32;100.00
9905;BME280;4991;43.566;27.820;2022-09-09T04:41:15;99064.16;;;17.46;100.00
9905;BME280;4991;43.566;27.820;2022-09-09T04:43:41;99055.88;;;17.46;100.00
9905;BME280;4991;43.566;27.820;2022-09-09T04:46:08;99056.09;;;17.53;100.00
9905;BME280;4991;43.566;27.820;2022-09-09T04:48:33;99052.91;;;17.63;100.00
9905;BME280;4991;43.566;27.820;2022-09-09T04:51:08;99054.63;;;17.79;100.00
9905;BME280;4991;43.566;27.820;2022-09-09T04:53:34;99053.59;;;17.84;100.00
9905;BME280;4991;43.566;27.820;2022-09-09T04:56:12;99061.97;;;17.99;100.00
9905;BME280;4991;43.566;27.820;2022-09-09T04:58:40;99060.38;;;18.11;100.00
9905;BME280;4991;43.566;27.820;2022-09-09T05:01:16;99060.66;;;18.21;100.00
9905;BME280;4991;43.566;27.820;2022-09-09T05:03:44;99062.59;;;18.33;100.00
9905;BME280;4991;43.566;27.820;2022-09-09T05:06:13;99067.78;;;18.46;100.00
9905;BME280;4991;43.566;27.820;2022-09-09T05:08:40;99064.19;;;18.58;100.00
9905;BME280;4991;43.566;27.820;2022-09-09T05:11:33;99058.28;;;18.71;100.00
9905;BME280;4991;43.566;27.820;2022-09-09T05:14:02;99066.25;;;18.88;100.00
9905;BME280;4991;43.566;27.820;2022-09-09T05:16:28;99068.84;;;18.97;100.00
9905;BME280;4991;43.566;27.820;2022-09-09T05:18:55;99074.66;;;19.07;100.00
9905;BME280;4991;43.566;27.820;2022-09-09T05:21:22;99064.28;;;19.16;100.00
9905;BME280;4991;43.566;27.820;2022-09-09T05:23:49;99066.16;;;19.28;100.00
9905;BME280;4991;43.566;27.820;2022-09-09T05:26:18;99066.91;;;19.41;100.00
9905;BME280;4991;43.566;27.820;2022-09-09T05:28:45;99058.81;;;19.48;100.00
9905;BME280;4991;43.566;27.820;2022-09-09T05:31:12;99057.38;;;19.54;100.00
9905;BME280;4991;43.566;27.820;2022-09-09T05:33:39;99054.34;;;19.59;100.00
9905;BME280;4991;43.566;27.820;2022-09-09T05:36:11;99052.22;;;19.68;100.00
9905;BME280;4991;43.566;27.820;2022-09-09T05:38:41;99055.88;;;19.72;100.00
9905;BME280;4991;43.566;27.820;2022-09-09T05:41:07;99045.81;;;19.79;100.00
9905;BME280;4991;43.566;27.820;2022-09-09T05:43:33;99041.13;;;19.83;100.00
9905;BME280;4991;43.566;27.820;2022-09-09T05:46:12;99037.47;;;19.95;100.00
9905;BME280;4991;43.566;27.820;2022-09-09T05:48:40;99033.66;;;19.99;100.00
9905;BME280;4991;43.566;27.820;2022-09-09T05:51:09;99035.03;;;20.09;100.00
9905;BME280;4991;43.566;27.820;2022-09-09T05:53:37;99025.66;;;20.13;100.00
9905;BME280;4991;43.566;27.820;2022-09-09T05:56:09;99031.47;;;20.24;100.00
9905;BME280;4991;43.566;27.820;2022-09-09T05:58:38;99030.38;;;20.28;100.00
9905;BME280;4991;43.566;27.820;2022-09-09T06:01:09;99034.13;;;20.36;100.00
9905;BME280;4991;43.566;27.820;2022-09-09T06:03:36;99029.22;;;20.48;100.00
9905;BME280;4991;43.566;27.820;2022-09-09T06:06:08;99028.94;;;20.53;100.00
9905;BME280;4991;43.566;27.820;2022-09-09T06:08:37;99030.78;;;20.65;100.00
9905;BME280;4991;43.566;27.820;2022-09-09T06:11:11;99030.63;;;20.77;100.00
9905;BME280;4991;43.566;27.820;2022-09-09T06:13:38;99036.31;;;20.84;100.00
9905;BME280;4991;43.566;27.820;2022-09-09T06:16:17;99032.81;;;20.87;100.00
9905;BME280;4991;43.566;27.820;2022-09-09T06:18:44;99042.78;;;20.92;100.00
9905;BME280;4991;43.566;27.820;2022-09-09T06:21:18;99042.16;;;20.98;100.00
9905;BME280;4991;43.566;27.820;2022-09-09T06:23:44;99041.03;;;21.03;100.00
9905;BME280;4991;43.566;27.820;2022-09-09T06:26:15;99053.56;;;21.16;100.00
9905;BME280;4991;43.566;27.820;2022-09-09T06:28:44;99051.72;;;21.23;100.00
9905;BME280;4991;43.566;27.820;2022-09-09T06:31:12;99043.94;;;21.29;100.00
9905;BME280;4991;43.566;27.820;2022-09-09T06:33:39;99050.75;;;21.35;100.00
9905;BME280;4991;43.566;27.820;2022-09-09T06:36:17;99052.47;;;21.43;100.00
9905;BME280;4991;43.566;27.820;2022-09-09T06:38:44;99054.56;;;21.49;100.00
9905;BME280;4991;43.566;27.820;2022-09-09T06:41:10;99045.56;;;21.56;100.00
9905;BME280;4991;43.566;27.820;2022-09-09T06:43:36;99055.19;;;21.62;100.00
9905;BME280;4991;43.566;27.820;2022-09-09T06:46:08;99050.06;;;21.64;100.00
9905;BME280;4991;43.566;27.820;2022-09-09T06:48:34;99045.41;;;21.68;100.00
9905;BME280;4991;43.566;27.820;2022-09-09T06:51:07;99046.19;;;21.68;100.00
9905;BME280;4991;43.566;27.820;2022-09-09T06:53:34;99034.91;;;21.77;100.00
9905;BME280;4991;43.566;27.820;2022-09-09T06:56:21;99039.31;;;21.82;100.00
9905;BME280;4991;43.566;27.820;2022-09-09T06:58:49;99044.59;;;21.90;100.00
9905;BME280;4991;43.566;27.820;2022-09-09T07:01:16;99032.38;;;21.95;100.00
9905;BME280;4991;43.566;27.820;2022-09-09T07:03:46;99030.88;;;22.01;100.00
9905;BME280;4991;43.566;27.820;2022-09-09T07:06:24;99031.44;;;22.10;100.00
9905;BME280;4991;43.566;27.820;2022-09-09T07:08:51;99021.66;;;22.19;100.00
9905;BME280;4991;43.566;27.820;2022-09-09T07:11:19;99034.81;;;22.26;100.00
9905;BME280;4991;43.566;27.820;2022-09-09T07:13:45;99030.97;;;22.34;100.00
9905;BME280;4991;43.566;27.820;2022-09-09T07:16:13;99035.81;;;22.40;100.00
9905;BME280;4991;43.566;27.820;2022-09-09T07:18:40;99030.00;;;22.49;100.00
9905;BME280;4991;43.566;27.820;2022-09-09T07:21:06;99046.81;;;22.59;100.00
9905;BME280;4991;43.566;27.820;2022-09-09T07:23:32;99045.72;;;22.67;100.00
9905;BME280;4991;43.566;27.820;2022-09-09T07:25:58;99043.44;;;22.73;100.00
9905;BME280;4991;43.566;27.820;2022-09-09T07:28:25;99037.59;;;22.81;100.00
9905;BME280;4991;43.566;27.820;2022-09-09T07:30:59;99049.31;;;23.01;100.00
9905;BME280;4991;43.566;27.820;2022-09-09T07:33:28;99039.38;;;23.00;100.00
9905;BME280;4991;43.566;27.820;2022-09-09T07:36:06;99041.03;;;23.05;100.00
9905;BME280;4991;43.566;27.820;2022-09-09T07:38:41;99044.66;;;23.12;100.00
9905;BME280;4991;43.566;27.820;2022-09-09T07:41:10;99050.75;;;23.21;100.00
9905;BME280;4991;43.566;27.820;2022-09-09T07:43:44;99051.56;;;23.25;100.00
9905;BME280;4991;43.566;27.820;2022-09-09T07:46:13;99050.09;;;23.31;100.00
9905;BME280;4991;43.566;27.820;2022-09-09T07:48:53;99051.81;;;23.46;100.00
9905;BME280;4991;43.566;27.820;2022-09-09T07:51:23;99042.38;;;23.54;100.00
9905;BME280;4991;43.566;27.820;2022-09-09T07:54:01;99045.59;;;23.63;100.00
9905;BME280;4991;43.566;27.820;2022-09-09T07:56:28;99053.22;;;23.70;100.00
9905;BME280;4991;43.566;27.820;2022-09-09T07:58:55;99047.66;;;23.70;100.00
9905;BME280;4991;43.566;27.820;2022-09-09T08:01:31;99055.72;;;23.85;100.00
9905;BME280;4991;43.566;27.820;2022-09-09T08:04:03;99047.84;;;23.94;100.00
9905;BME280;4991;43.566;27.820;2022-09-09T08:06:32;99045.53;;;24.00;100.00
9905;BME280;4991;43.566;27.820;2022-09-09T08:08:59;99040.81;;;24.04;100.00
9905;BME280;4991;43.566;27.820;2022-09-09T08:11:26;99040.84;;;24.07;100.00
9905;BME280;4991;43.566;27.820;2022-09-09T08:13:53;99043.69;;;24.21;100.00
9905;BME280;4991;43.566;27.820;2022-09-09T08:16:23;99029.03;;;24.28;100.00
9905;BME280;4991;43.566;27.820;2022-09-09T08:18:50;99025.47;;;24.31;100.00
9905;BME280;4991;43.566;27.820;2022-09-09T08:21:19;99029.06;;;24.35;100.00
9905;BME280;4991;43.566;27.820;2022-09-09T08:23:47;99031.47;;;24.37;100.00
9905;BME280;4991;43.566;27.820;2022-09-09T08:26:21;99022.72;;;24.38;100.00
9905;BME280;4991;43.566;27.820;2022-09-09T08:28:50;99020.41;;;24.47;100.00
9905;BME280;4991;43.566;27.820;2022-09-09T08:31:19;99008.09;;;24.55;100.00
9905;BME280;4991;43.566;27.820;2022-09-09T08:33:46;99008.91;;;24.63;100.00
9905;BME280;4991;43.566;27.820;2022-09-09T08:36:16;99006.59;;;24.72;100.00
9905;BME280;4991;43.566;27.820;2022-09-09T08:38:43;98991.47;;;24.73;100.00
9905;BME280;4991;43.566;27.820;2022-09-09T08:52:30;98994.38;;;25.11;100.00
9905;BME280;4991;43.566;27.820;2022-09-09T08:55:03;99002.38;;;25.20;100.00
9905;BME280;4991;43.566;27.820;2022-09-09T08:57:32;98997.56;;;25.24;100.00
9905;BME280;4991;43.566;27.820;2022-09-09T08:59:59;98989.25;;;25.34;100.00
9905;BME280;4991;43.566;27.820;2022-09-09T09:02:44;98988.47;;;25.37;100.00
9905;BME280;4991;43.566;27.820;2022-09-09T09:05:23;98983.66;;;25.34;100.00
9905;BME280;4991;43.566;27.820;2022-09-09T09:08:30;98982.50;;;25.42;100.00
9905;BME280;4991;43.566;27.820;2022-09-09T09:11:03;98991.28;;;25.52;100.00
9905;BME280;4991;43.566;27.820;2022-09-09T09:13:47;98992.47;;;25.61;100.00
9905;BME280;4991;43.566;27.820;2022-09-09T09:16:27;98994.47;;;25.78;100.00
9905;BME280;4991;43.566;27.820;2022-09-09T09:18:55;98995.25;;;25.89;100.00
9905;BME280;4991;43.566;27.820;2022-09-09T09:21:51;98992.84;;;26.02;100.00
9905;BME280;4991;43.566;27.820;2022-09-09T09:27:14;99007.72;;;26.96;100.00
9905;BME280;4991;43.566;27.820;2022-09-09T09:29:41;99021.28;;;29.18;83.81
9905;BME280;4991;43.566;27.820;2022-09-09T09:32:14;99015.13;;;31.60;62.40
9905;BME280;4991;43.566;27.820;2022-09-09T09:34:41;99025.97;;;32.54;50.51
9905;BME280;4991;43.566;27.820;2022-09-09T09:37:17;99023.06;;;33.52;44.26
9905;BME280;4991;43.566;27.820;2022-09-09T09:39:46;99019.56;;;33.86;42.22
9905;BME280;4991;43.566;27.820;2022-09-09T09:42:14;99021.75;;;34.16;39.65
9905;BME280;4991;43.566;27.820;2022-09-09T09:44:41;98996.13;;;34.45;38.62
9905;BME280;4991;43.566;27.820;2022-09-09T09:47:12;98993.59;;;33.66;36.42
9905;BME280;4991;43.566;27.820;2022-09-09T09:49:55;98986.34;;;34.24;38.22
9905;BME280;4991;43.566;27.820;2022-09-09T09:52:24;98985.06;;;34.59;36.91
9905;BME280;4991;43.566;27.820;2022-09-09T09:54:50;98977.59;;;35.97;35.23
9905;BME280;4991;43.566;27.820;2022-09-09T09:57:18;98982.81;;;35.59;35.29
9905;BME280;4991;43.566;27.820;2022-09-09T09:59:45;98973.59;;;35.37;35.24
9905;BME280;4991;43.566;27.820;2022-09-09T10:02:20;98970.53;;;34.91;34.57
9905;BME280;4991;43.566;27.820;2022-09-09T10:05:01;98968.13;;;35.42;32.75
9905;BME280;4991;43.566;27.820;2022-09-09T10:07:27;98971.31;;;36.11;31.23
9905;BME280;4991;43.566;27.820;2022-09-09T10:09:57;98981.38;;;36.03;31.78
9905;BME280;4991;43.566;27.820;2022-09-09T10:12:31;98973.03;;;36.17;32.88
9905;BME280;4991;43.566;27.820;2022-09-09T10:18:22;98982.22;;;36.58;32.73
9905;BME280;4991;43.566;27.820;2022-09-09T10:21:31;98989.41;;;37.87;30.63
9905;BME280;4991;43.566;27.820;2022-09-09T10:32:41;98985.28;;;37.05;31.24
9905;BME280;4991;43.566;27.820;2022-09-09T10:35:33;98991.91;;;37.11;28.48
9905;BME280;4991;43.566;27.820;2022-09-09T10:40:32;98976.03;;;36.68;25.58
9905;BME280;4991;43.566;27.820;2022-09-09T10:43:10;98983.13;;;36.18;26.38
9905;BME280;4991;43.566;27.820;2022-09-09T10:56:16;98978.47;;;35.76;26.72
9905;BME280;4991;43.566;27.820;2022-09-09T10:59:07;98977.91;;;36.17;25.95
9905;BME280;4991;43.566;27.820;2022-09-09T11:02:35;98983.72;;;35.95;26.25
9905;BME280;4991;43.566;27.820;2022-09-09T11:07:14;98974.06;;;35.04;26.35
9905;BME280;4991;43.566;27.820;2022-09-09T11:09:49;98982.06;;;34.97;25.91
9905;BME280;4991;43.566;27.820;2022-09-09T11:12:19;98984.16;;;34.62;27.06
9905;BME280;4991;43.566;27.820;2022-09-09T11:14:59;98978.66;;;34.89;27.06
9905;BME280;4991;43.566;27.820;2022-09-09T11:17:38;98977.78;;;34.92;26.93
9905;BME280;4991;43.566;27.820;2022-09-09T11:20:11;98981.97;;;34.88;27.42
9905;BME280;4991;43.566;27.820;2022-09-09T11:22:54;98984.66;;;35.13;26.44
9905;BME280;4991;43.566;27.820;2022-09-09T11:25:43;98971.50;;;34.76;25.75
9905;BME280;4991;43.566;27.820;2022-09-09T11:41:51;98957.88;;;33.47;30.53
9905;BME280;4991;43.566;27.820;2022-09-09T11:44:26;98945.94;;;34.02;30.87
9905;BME280;4991;43.566;27.820;2022-09-09T11:46:53;98952.50;;;34.55;29.30
9905;BME280;4991;43.566;27.820;2022-09-09T11:51:56;98941.16;;;34.12;31.65
9905;BME280;4991;43.566;27.820;2022-09-09T11:54:49;98936.81;;;34.20;32.86
9905;BME280;4991;43.566;27.820;2022-09-09T11:57:35;98938.59;;;34.91;32.84
9905;BME280;4991;43.566;27.820;2022-09-09T12:00:02;98931.47;;;34.86;31.79
9905;BME280;4991;43.566;27.820;2022-09-09T12:02:28;98943.44;;;35.43;31.63
9905;BME280;4991;43.566;27.820;2022-09-09T12:05:00;98933.03;;;35.40;32.60
9905;BME280;4991;43.566;27.820;2022-09-09T12:07:41;98931.22;;;35.82;32.28
9905;BME280;4991;43.566;27.820;2022-09-09T12:10:27;98936.81;;;36.21;32.59
9905;BME280;4991;43.566;27.820;2022-09-09T12:12:54;98933.66;;;36.56;31.78
9905;BME280;4991;43.566;27.820;2022-09-09T12:15:21;98939.66;;;36.58;31.62
9905;BME280;4991;43.566;27.820;2022-09-09T12:17:55;98936.75;;;36.85;30.84
9905;BME280;4991;43.566;27.820;2022-09-09T12:23:24;98930.78;;;36.74;30.68
9905;BME280;4991;43.566;27.820;2022-09-09T12:28:39;98924.88;;;34.89;34.16
9905;BME280;4991;43.566;27.820;2022-09-09T12:33:53;98915.00;;;35.25;33.62
9905;BME280;4991;43.566;27.820;2022-09-09T12:36:23;98907.59;;;35.18;34.24
9905;BME280;4991;43.566;27.820;2022-09-09T12:38:50;98912.25;;;34.29;37.25
9905;BME280;4991;43.566;27.820;2022-09-09T12:41:24;98908.06;;;35.17;37.63
9905;BME280;4991;43.566;27.820;2022-09-09T12:43:50;98902.38;;;35.56;35.11
9905;BME280;4991;43.566;27.820;2022-09-09T12:46:27;98906.09;;;34.95;34.39
9905;BME280;4991;43.566;27.820;2022-09-09T12:48:55;98904.09;;;35.45;35.01
9905;BME280;4991;43.566;27.820;2022-09-09T12:51:30;98900.44;;;34.95;36.78
9905;BME280;4991;43.566;27.820;2022-09-09T12:53:56;98896.66;;;34.98;36.76
9905;BME280;4991;43.566;27.820;2022-09-09T12:56:31;98896.94;;;35.98;34.24
9905;BME280;4991;43.566;27.820;2022-09-09T12:58:58;98893.97;;;36.38;33.74
9905;BME280;4991;43.566;27.820;2022-09-09T13:01:26;98907.38;;;36.97;32.29
9905;BME280;4991;43.566;27.820;2022-09-09T13:03:53;98894.66;;;36.83;32.70
9905;BME280;4991;43.566;27.820;2022-09-09T13:06:30;98886.22;;;36.47;34.27
9905;BME280;4991;43.566;27.820;2022-09-09T13:08:58;98896.94;;;35.89;34.85
9905;BME280;4991;43.566;27.820;2022-09-09T13:11:46;98885.44;;;35.92;34.51
9905;BME280;4991;43.566;27.820;2022-09-09T13:14:24;98881.44;;;35.05;35.58
9905;BME280;4991;43.566;27.820;2022-09-09T13:17:03;98885.72;;;34.88;37.91
9905;BME280;4991;43.566;27.820;2022-09-09T13:19:33;98884.22;;;34.65;39.67
9905;BME280;4991;43.566;27.820;2022-09-09T13:22:11;98886.50;;;34.15;39.41
9905;BME280;4991;43.566;27.820;2022-09-09T13:24:38;98886.28;;;34.95;39.01
9905;BME280;4991;43.566;27.820;2022-09-09T13:27:26;98882.16;;;36.03;36.77
9905;BME280;4991;43.566;27.820;2022-09-09T13:29:54;98884.09;;;37.16;33.93
9905;BME280;4991;43.566;27.820;2022-09-09T13:32:21;98883.84;;;37.05;32.33
9905;BME280;4991;43.566;27.820;2022-09-09T13:34:59;98888.81;;;36.78;33.00
9905;BME280;4991;43.566;27.820;2022-09-09T13:37:33;98893.00;;;35.95;34.01
9905;BME280;4991;43.566;27.820;2022-09-09T13:40:00;98888.28;;;36.01;35.30
9905;BME280;4991;43.566;27.820;2022-09-09T13:42:29;98887.31;;;36.50;34.74
9905;BME280;4991;43.566;27.820;2022-09-09T13:44:58;98891.19;;;36.70;34.38
9905;BME280;4991;43.566;27.820;2022-09-09T13:47:43;98885.47;;;36.97;34.53
9905;BME280;4991;43.566;27.820;2022-09-09T13:50:28;98889.63;;;37.76;33.73
9905;BME280;4991;43.566;27.820;2022-09-09T13:52:56;98888.00;;;38.22;32.74
9905;BME280;4991;43.566;27.820;2022-09-09T13:55:25;98877.28;;;38.70;33.38
9905;BME280;4991;43.566;27.820;2022-09-09T14:00:18;98868.94;;;38.66;34.25
9905;BME280;4991;43.566;27.820;2022-09-09T14:02:43;98879.19;;;37.82;35.28
9905;BME280;4991;43.566;27.820;2022-09-09T14:05:10;98873.59;;;37.64;35.08
9905;BME280;4991;43.566;27.820;2022-09-09T14:07:38;98877.00;;;37.21;33.37
9905;BME280;4991;43.566;27.820;2022-09-09T14:10:06;98880.38;;;36.51;35.41
9905;BME280;4991;43.566;27.820;2022-09-09T14:12:31;98877.81;;;35.62;38.70
9905;BME280;4991;43.566;27.820;2022-09-09T14:14:57;98876.44;;;36.30;38.21
9905;BME280;4991;43.566;27.820;2022-09-09T14:17:25;98875.78;;;34.53;41.82
9905;BME280;4991;43.566;27.820;2022-09-09T14:19:54;98869.00;;;33.73;46.61
9905;BME280;4991;43.566;27.820;2022-09-09T14:22:21;98875.75;;;33.54;48.85
9905;BME280;4991;43.566;27.820;2022-09-09T14:24:47;98871.84;;;33.26;51.19
9905;BME280;4991;43.566;27.820;2022-09-09T14:27:13;98864.69;;;33.59;50.44
9905;BME280;4991;43.566;27.820;2022-09-09T14:29:38;98853.63;;;34.51;48.35
9905;BME280;4991;43.566;27.820;2022-09-09T14:32:04;98859.50;;;35.36;44.90
9905;BME280;4991;43.566;27.820;2022-09-09T14:34:30;98861.97;;;36.01;44.01
9905;BME280;4991;43.566;27.820;2022-09-09T14:36:58;98868.75;;;36.21;42.46
9905;BME280;4991;43.566;27.820;2022-09-09T14:39:24;98864.59;;;37.09;40.42
9905;BME280;4991;43.566;27.820;2022-09-09T14:41:49;98856.28;;;36.97;41.54
9905;BME280;4991;43.566;27.820;2022-09-09T14:44:15;98872.50;;;37.38;40.87
9905;BME280;4991;43.566;27.820;2022-09-09T14:46:41;98862.59;;;36.41;42.66
9905;BME280;4991;43.566;27.820;2022-09-09T14:49:08;98866.69;;;35.77;45.65
9905;BME280;4991;43.566;27.820;2022-09-09T14:51:35;98865.72;;;33.53;53.59
9905;BME280;4991;43.566;27.820;2022-09-09T14:54:02;98858.13;;;33.84;54.90
9905;BME280;4991;43.566;27.820;2022-09-09T14:56:30;98841.91;;;33.41;57.22
9905;BME280;4991;43.566;27.820;2022-09-09T14:58:57;98854.63;;;31.60;69.45
9905;BME280;4991;43.566;27.820;2022-09-09T15:01:24;98843.22;;;31.34;76.41
9905;BME280;4991;43.566;27.820;2022-09-09T15:03:54;98849.72;;;31.15;81.19
9905;BME280;4991;43.566;27.820;2022-09-09T15:06:22;98847.94;;;30.54;91.77
9905;BME280;4991;43.566;27.820;2022-09-09T15:08:50;98843.75;;;30.26;100.00
9905;BME280;4991;43.566;27.820;2022-09-09T15:11:16;98838.16;;;29.83;100.00
9905;BME280;4991;43.566;27.820;2022-09-09T15:13:43;98835.16;;;29.51;100.00
9905;BME280;4991;43.566;27.820;2022-09-09T15:16:16;98841.28;;;28.96;100.00
9905;BME280;4991;43.566;27.820;2022-09-09T15:18:43;98846.47;;;28.71;100.00
9905;BME280;4991;43.566;27.820;2022-09-09T15:21:14;98844.28;;;28.82;100.00